sensor_id;sensor_type;location;lat;lon;timestamp;P1;durP1;ratioP1;P2;durP2;ratioP2
77597;SDS011;66756;42.774;23.354;2023-10-08T00:00:26;2.58;;;1.60;;
77597;SDS011;66756;42.774;23.354;2023-10-08T00:03:08;6.22;;;1.92;;
77597;SDS011;66756;42.774;23.354;2023-10-08T00:05:35;3.28;;;0.90;;
77597;SDS011;66756;42.774;23.354;2023-10-08T00:08:01;3.88;;;1.80;;
77597;SDS011;66756;42.774;23.354;2023-10-08T00:10:33;5.28;;;2.65;;
77597;SDS011;66756;42.774;23.354;2023-10-08T00:12:59;4.63;;;1.42;;
77597;SDS011;66756;42.774;23.354;2023-10-08T00:15:26;3.90;;;2.15;;
77597;SDS011;66756;42.774;23.354;2023-10-08T00:17:52;4.07;;;2.22;;
77597;SDS011;66756;42.774;23.354;2023-10-08T00:20:20;6.68;;;1.80;;
77597;SDS011;66756;42.774;23.354;2023-10-08T00:22:51;5.90;;;1.52;;
77597;SDS011;66756;42.774;23.354;2023-10-08T00:25:20;4.18;;;1.95;;
77597;SDS011;66756;42.774;23.354;2023-10-08T00:27:46;5.15;;;1.90;;
77597;SDS011;66756;42.774;23.354;2023-10-08T00:30:16;4.18;;;1.77;;
77597;SDS011;66756;42.774;23.354;2023-10-08T00:32:45;5.55;;;2.58;;
77597;SDS011;66756;42.774;23.354;2023-10-08T00:35:11;4.60;;;2.13;;
77597;SDS011;66756;42.774;23.354;2023-10-08T00:37:40;5.35;;;3.08;;
77597;SDS011;66756;42.774;23.354;2023-10-08T00:40:06;4.07;;;2.00;;
77597;SDS011;66756;42.774;23.354;2023-10-08T00:42:46;3.72;;;2.22;;
77597;SDS011;66756;42.774;23.354;2023-10-08T00:45:12;5.72;;;3.00;;
77597;SDS011;66756;42.774;23.354;2023-10-08T00:47:39;5.03;;;1.75;;
77597;SDS011;66756;42.774;23.354;2023-10-08T00:50:11;4.95;;;2.45;;
77597;SDS011;66756;42.774;23.354;2023-10-08T00:52:56;4.43;;;2.08;;
77597;SDS011;66756;42.774;23.354;2023-10-08T00:55:25;5.80;;;3.33;;
77597;SDS011;66756;42.774;23.354;2023-10-08T00:57:58;4.70;;;2.65;;
77597;SDS011;66756;42.774;23.354;2023-10-08T01:00:34;4.53;;;3.40;;
77597;SDS011;66756;42.774;23.354;2023-10-08T01:03:08;5.35;;;2.38;;
77597;SDS011;66756;42.774;23.354;2023-10-08T01:05:40;6.18;;;2.72;;
77597;SDS011;66756;42.774;23.354;2023-10-08T01:08:13;3.95;;;2.15;;
77597;SDS011;66756;42.774;23.354;2023-10-08T01:10:44;5.75;;;3.40;;
77597;SDS011;66756;42.774;23.354;2023-10-08T01:13:12;6.93;;;2.97;;
77597;SDS011;66756;42.774;23.354;2023-10-08T01:15:45;5.30;;;3.30;;
77597;SDS011;66756;42.774;23.354;2023-10-08T01:18:15;5.40;;;2.63;;
77597;SDS011;66756;42.774;23.354;2023-10-08T01:20:44;5.30;;;2.90;;
77597;SDS011;66756;42.774;23.354;2023-10-08T01:23:13;5.63;;;3.53;;
77597;SDS011;66756;42.774;23.354;2023-10-08T01:25:44;8.95;;;3.42;;
77597;SDS011;66756;42.774;23.354;2023-10-08T01:28:15;6.85;;;3.60;;
77597;SDS011;66756;42.774;23.354;2023-10-08T01:30:53;5.90;;;2.92;;
77597;SDS011;66756;42.774;23.354;2023-10-08T01:33:20;6.68;;;2.47;;
77597;SDS011;66756;42.774;23.354;2023-10-08T01:35:47;5.13;;;2.97;;
77597;SDS011;66756;42.774;23.354;2023-10-08T01:38:16;5.85;;;2.60;;
77597;SDS011;66756;42.774;23.354;2023-10-08T01:40:48;5.60;;;2.70;;
77597;SDS011;66756;42.774;23.354;2023-10-08T01:43:16;3.92;;;1.63;;
77597;SDS011;66756;42.774;23.354;2023-10-08T01:45:43;4.40;;;1.90;;
77597;SDS011;66756;42.774;23.354;2023-10-08T01:48:13;3.63;;;2.30;;
77597;SDS011;66756;42.774;23.354;2023-10-08T01:50:45;4.30;;;1.67;;
77597;SDS011;66756;42.774;23.354;2023-10-08T01:53:12;4.45;;;2.33;;
77597;SDS011;66756;42.774;23.354;2023-10-08T01:55:40;5.63;;;2.63;;
77597;SDS011;66756;42.774;23.354;2023-10-08T01:58:17;3.83;;;2.22;;
77597;SDS011;66756;42.774;23.354;2023-10-08T02:00:46;5.00;;;2.03;;
77597;SDS011;66756;42.774;23.354;2023-10-08T02:03:13;6.43;;;3.25;;
77597;SDS011;66756;42.774;23.354;2023-10-08T02:05:47;4.75;;;2.65;;
77597;SDS011;66756;42.774;23.354;2023-10-08T02:08:14;3.92;;;1.98;;
77597;SDS011;66756;42.774;23.354;2023-10-08T02:10:42;3.72;;;2.28;;
77597;SDS011;66756;42.774;23.354;2023-10-08T02:13:12;4.47;;;2.47;;
77597;SDS011;66756;42.774;23.354;2023-10-08T02:15:45;5.60;;;1.75;;
77597;SDS011;66756;42.774;23.354;2023-10-08T02:18:12;5.20;;;2.55;;
77597;SDS011;66756;42.774;23.354;2023-10-08T02:20:39;4.85;;;1.95;;
77597;SDS011;66756;42.774;23.354;2023-10-08T02:23:05;5.35;;;2.75;;
77597;SDS011;66756;42.774;23.354;2023-10-08T02:25:31;6.10;;;2.55;;
77597;SDS011;66756;42.774;23.354;2023-10-08T02:28:01;5.18;;;2.67;;
77597;SDS011;66756;42.774;23.354;2023-10-08T02:30:27;4.28;;;2.72;;
77597;SDS011;66756;42.774;23.354;2023-10-08T02:32:53;3.72;;;2.08;;
77597;SDS011;66756;42.774;23.354;2023-10-08T02:35:19;3.83;;;1.92;;
77597;SDS011;66756;42.774;23.354;2023-10-08T02:37:47;4.57;;;1.92;;
77597;SDS011;66756;42.774;23.354;2023-10-08T02:40:14;3.90;;;1.95;;
77597;SDS011;66756;42.774;23.354;2023-10-08T02:43:00;5.28;;;2.15;;
77597;SDS011;66756;42.774;23.354;2023-10-08T02:45:26;5.20;;;2.35;;
77597;SDS011;66756;42.774;23.354;2023-10-08T02:47:56;4.25;;;2.30;;
77597;SDS011;66756;42.774;23.354;2023-10-08T02:50:22;2.50;;;1.05;;
77597;SDS011;66756;42.774;23.354;2023-10-08T02:52:49;4.65;;;2.45;;
77597;SDS011;66756;42.774;23.354;2023-10-08T02:55:16;5.15;;;2.45;;
77597;SDS011;66756;42.774;23.354;2023-10-08T02:57:59;6.60;;;2.05;;
77597;SDS011;66756;42.774;23.354;2023-10-08T03:00:27;4.88;;;2.42;;
77597;SDS011;66756;42.774;23.354;2023-10-08T03:03:00;4.75;;;2.30;;
77597;SDS011;66756;42.774;23.354;2023-10-08T03:05:34;4.78;;;2.63;;
77597;SDS011;66756;42.774;23.354;2023-10-08T03:08:04;4.78;;;2.97;;
77597;SDS011;66756;42.774;23.354;2023-10-08T03:10:36;4.55;;;2.33;;
77597;SDS011;66756;42.774;23.354;2023-10-08T03:13:03;3.90;;;2.50;;
77597;SDS011;66756;42.774;23.354;2023-10-08T03:15:30;6.20;;;3.30;;
77597;SDS011;66756;42.774;23.354;2023-10-08T03:18:03;6.25;;;3.70;;
77597;SDS011;66756;42.774;23.354;2023-10-08T03:20:50;5.40;;;2.47;;
77597;SDS011;66756;42.774;23.354;2023-10-08T03:23:16;6.45;;;2.72;;
77597;SDS011;66756;42.774;23.354;2023-10-08T03:25:54;4.32;;;3.25;;
77597;SDS011;66756;42.774;23.354;2023-10-08T03:28:30;4.35;;;2.85;;
77597;SDS011;66756;42.774;23.354;2023-10-08T03:31:00;4.88;;;2.60;;
77597;SDS011;66756;42.774;23.354;2023-10-08T03:33:33;5.90;;;3.40;;
77597;SDS011;66756;42.774;23.354;2023-10-08T03:36:06;6.63;;;3.03;;
77597;SDS011;66756;42.774;23.354;2023-10-08T03:38:55;5.22;;;2.85;;
77597;SDS011;66756;42.774;23.354;2023-10-08T03:41:23;4.90;;;2.67;;
77597;SDS011;66756;42.774;23.354;2023-10-08T03:43:52;5.60;;;3.47;;
77597;SDS011;66756;42.774;23.354;2023-10-08T03:46:26;5.38;;;3.17;;
77597;SDS011;66756;42.774;23.354;2023-10-08T03:48:52;5.72;;;2.50;;
77597;SDS011;66756;42.774;23.354;2023-10-08T03:51:21;3.63;;;2.22;;
77597;SDS011;66756;42.774;23.354;2023-10-08T03:53:47;6.00;;;2.33;;
77597;SDS011;66756;42.774;23.354;2023-10-08T03:56:27;3.33;;;1.98;;
77597;SDS011;66756;42.774;23.354;2023-10-08T03:58:56;7.60;;;4.03;;
77597;SDS011;66756;42.774;23.354;2023-10-08T04:01:25;6.03;;;3.50;;
77597;SDS011;66756;42.774;23.354;2023-10-08T04:03:57;7.05;;;3.70;;
77597;SDS011;66756;42.774;23.354;2023-10-08T04:06:24;6.88;;;4.07;;
77597;SDS011;66756;42.774;23.354;2023-10-08T04:08:56;5.28;;;3.20;;
77597;SDS011;66756;42.774;23.354;2023-10-08T04:11:42;7.80;;;4.63;;
77597;SDS011;66756;42.774;23.354;2023-10-08T04:14:14;5.78;;;3.00;;
77597;SDS011;66756;42.774;23.354;2023-10-08T04:16:43;4.78;;;3.03;;
77597;SDS011;66756;42.774;23.354;2023-10-08T04:19:12;4.68;;;3.10;;
77597;SDS011;66756;42.774;23.354;2023-10-08T04:21:43;6.07;;;2.80;;
77597;SDS011;66756;42.774;23.354;2023-10-08T04:24:09;5.45;;;2.92;;
77597;SDS011;66756;42.774;23.354;2023-10-08T04:26:35;7.05;;;4.07;;
77597;SDS011;66756;42.774;23.354;2023-10-08T04:29:04;6.80;;;3.40;;
77597;SDS011;66756;42.774;23.354;2023-10-08T04:31:34;6.15;;;2.03;;
77597;SDS011;66756;42.774;23.354;2023-10-08T04:34:11;6.60;;;2.88;;
77597;SDS011;66756;42.774;23.354;2023-10-08T04:36:47;5.47;;;2.00;;
77597;SDS011;66756;42.774;23.354;2023-10-08T04:39:19;4.65;;;2.78;;
77597;SDS011;66756;42.774;23.354;2023-10-08T04:41:51;3.92;;;2.25;;
77597;SDS011;66756;42.774;23.354;2023-10-08T04:44:24;3.97;;;2.35;;
77597;SDS011;66756;42.774;23.354;2023-10-08T04:46:51;7.55;;;3.40;;
77597;SDS011;66756;42.774;23.354;2023-10-08T04:49:18;5.05;;;3.05;;
77597;SDS011;66756;42.774;23.354;2023-10-08T04:51:44;7.10;;;3.50;;
77597;SDS011;66756;42.774;23.354;2023-10-08T04:54:11;5.72;;;3.03;;
77597;SDS011;66756;42.774;23.354;2023-10-08T04:56:42;5.10;;;3.13;;
77597;SDS011;66756;42.774;23.354;2023-10-08T04:59:08;6.65;;;1.90;;
77597;SDS011;66756;42.774;23.354;2023-10-08T05:01:36;7.22;;;3.60;;
77597;SDS011;66756;42.774;23.354;2023-10-08T05:04:13;6.13;;;2.88;;
77597;SDS011;66756;42.774;23.354;2023-10-08T05:06:48;8.02;;;3.85;;
77597;SDS011;66756;42.774;23.354;2023-10-08T05:09:14;7.18;;;3.85;;
77597;SDS011;66756;42.774;23.354;2023-10-08T05:11:43;6.63;;;2.83;;
77597;SDS011;66756;42.774;23.354;2023-10-08T05:14:16;11.10;;;4.07;;
77597;SDS011;66756;42.774;23.354;2023-10-08T05:16:55;6.82;;;4.28;;
77597;SDS011;66756;42.774;23.354;2023-10-08T05:19:47;5.63;;;3.63;;
77597;SDS011;66756;42.774;23.354;2023-10-08T05:22:17;5.85;;;2.97;;
77597;SDS011;66756;42.774;23.354;2023-10-08T05:24:55;6.30;;;3.35;;
77597;SDS011;66756;42.774;23.354;2023-10-08T05:27:40;6.07;;;3.50;;
77597;SDS011;66756;42.774;23.354;2023-10-08T05:30:13;6.53;;;3.45;;
77597;SDS011;66756;42.774;23.354;2023-10-08T05:33:03;7.32;;;3.67;;
77597;SDS011;66756;42.774;23.354;2023-10-08T05:35:40;8.05;;;4.03;;
77597;SDS011;66756;42.774;23.354;2023-10-08T05:38:10;5.13;;;3.22;;
77597;SDS011;66756;42.774;23.354;2023-10-08T05:40:55;7.38;;;3.58;;
77597;SDS011;66756;42.774;23.354;2023-10-08T05:43:22;6.70;;;4.32;;
77597;SDS011;66756;42.774;23.354;2023-10-08T05:46:09;5.72;;;3.83;;
77597;SDS011;66756;42.774;23.354;2023-10-08T05:48:44;7.50;;;4.88;;
77597;SDS011;66756;42.774;23.354;2023-10-08T05:51:16;8.05;;;4.72;;
77597;SDS011;66756;42.774;23.354;2023-10-08T05:54:09;5.60;;;3.63;;
77597;SDS011;66756;42.774;23.354;2023-10-08T05:56:50;7.07;;;3.60;;
77597;SDS011;66756;42.774;23.354;2023-10-08T05:59:34;6.45;;;3.88;;
77597;SDS011;66756;42.774;23.354;2023-10-08T06:02:18;8.20;;;4.43;;
77597;SDS011;66756;42.774;23.354;2023-10-08T06:04:56;9.27;;;5.47;;
77597;SDS011;66756;42.774;23.354;2023-10-08T06:10:19;10.15;;;4.15;;
77597;SDS011;66756;42.774;23.354;2023-10-08T06:12:54;9.60;;;4.95;;
77597;SDS011;66756;42.774;23.354;2023-10-08T06:15:27;7.90;;;4.70;;
77597;SDS011;66756;42.774;23.354;2023-10-08T06:18:10;8.15;;;5.20;;
77597;SDS011;66756;42.774;23.354;2023-10-08T06:20:36;6.63;;;4.25;;
77597;SDS011;66756;42.774;23.354;2023-10-08T06:23:06;6.85;;;4.00;;
77597;SDS011;66756;42.774;23.354;2023-10-08T06:25:33;6.63;;;4.55;;
77597;SDS011;66756;42.774;23.354;2023-10-08T06:28:10;7.32;;;3.90;;
77597;SDS011;66756;42.774;23.354;2023-10-08T06:30:36;6.40;;;4.03;;
77597;SDS011;66756;42.774;23.354;2023-10-08T06:33:06;10.85;;;4.20;;
77597;SDS011;66756;42.774;23.354;2023-10-08T06:35:32;8.02;;;3.95;;
77597;SDS011;66756;42.774;23.354;2023-10-08T06:37:58;10.88;;;4.13;;
77597;SDS011;66756;42.774;23.354;2023-10-08T06:40:26;13.88;;;4.50;;
77597;SDS011;66756;42.774;23.354;2023-10-08T06:43:05;7.03;;;4.00;;
77597;SDS011;66756;42.774;23.354;2023-10-08T06:45:42;8.25;;;4.60;;
77597;SDS011;66756;42.774;23.354;2023-10-08T06:48:08;7.25;;;4.47;;
77597;SDS011;66756;42.774;23.354;2023-10-08T06:50:35;6.90;;;4.32;;
77597;SDS011;66756;42.774;23.354;2023-10-08T06:53:04;7.65;;;5.25;;
77597;SDS011;66756;42.774;23.354;2023-10-08T06:55:36;7.28;;;3.97;;
77597;SDS011;66756;42.774;23.354;2023-10-08T06:58:03;7.15;;;4.00;;
77597;SDS011;66756;42.774;23.354;2023-10-08T07:00:34;6.38;;;2.95;;
77597;SDS011;66756;42.774;23.354;2023-10-08T07:03:13;6.63;;;3.75;;
77597;SDS011;66756;42.774;23.354;2023-10-08T07:05:47;9.80;;;4.32;;
77597;SDS011;66756;42.774;23.354;2023-10-08T07:08:22;6.93;;;3.85;;
77597;SDS011;66756;42.774;23.354;2023-10-08T07:10:49;7.97;;;3.97;;
77597;SDS011;66756;42.774;23.354;2023-10-08T07:13:15;7.43;;;4.15;;
77597;SDS011;66756;42.774;23.354;2023-10-08T07:15:45;9.98;;;3.90;;
77597;SDS011;66756;42.774;23.354;2023-10-08T07:18:12;6.15;;;3.22;;
77597;SDS011;66756;42.774;23.354;2023-10-08T07:20:44;6.53;;;4.10;;
77597;SDS011;66756;42.774;23.354;2023-10-08T07:23:11;6.00;;;2.92;;
77597;SDS011;66756;42.774;23.354;2023-10-08T07:26:00;7.18;;;3.13;;
77597;SDS011;66756;42.774;23.354;2023-10-08T07:28:39;7.57;;;2.75;;
77597;SDS011;66756;42.774;23.354;2023-10-08T07:31:18;8.25;;;2.65;;
77597;SDS011;66756;42.774;23.354;2023-10-08T07:33:54;7.93;;;4.15;;
77597;SDS011;66756;42.774;23.354;2023-10-08T07:36:23;6.10;;;3.60;;
77597;SDS011;66756;42.774;23.354;2023-10-08T07:38:50;6.70;;;3.80;;
77597;SDS011;66756;42.774;23.354;2023-10-08T07:41:17;7.15;;;3.55;;
77597;SDS011;66756;42.774;23.354;2023-10-08T07:43:45;6.10;;;2.65;;
77597;SDS011;66756;42.774;23.354;2023-10-08T07:46:18;7.30;;;2.40;;
77597;SDS011;66756;42.774;23.354;2023-10-08T07:48:44;7.85;;;3.45;;
77597;SDS011;66756;42.774;23.354;2023-10-08T07:51:13;5.30;;;2.80;;
77597;SDS011;66756;42.774;23.354;2023-10-08T07:53:39;5.18;;;2.90;;
77597;SDS011;66756;42.774;23.354;2023-10-08T07:56:07;5.15;;;1.85;;
77597;SDS011;66756;42.774;23.354;2023-10-08T07:58:34;5.07;;;2.20;;
77597;SDS011;66756;42.774;23.354;2023-10-08T08:01:04;4.88;;;2.30;;
77597;SDS011;66756;42.774;23.354;2023-10-08T08:03:32;4.00;;;2.63;;
77597;SDS011;66756;42.774;23.354;2023-10-08T08:05:59;6.15;;;2.53;;
77597;SDS011;66756;42.774;23.354;2023-10-08T08:08:26;5.68;;;2.45;;
77597;SDS011;66756;42.774;23.354;2023-10-08T08:10:52;5.20;;;1.70;;
77597;SDS011;66756;42.774;23.354;2023-10-08T08:13:29;7.75;;;2.83;;
77597;SDS011;66756;42.774;23.354;2023-10-08T08:15:55;6.05;;;2.17;;
77597;SDS011;66756;42.774;23.354;2023-10-08T08:18:26;6.00;;;2.20;;
77597;SDS011;66756;42.774;23.354;2023-10-08T08:20:58;8.13;;;2.42;;
77597;SDS011;66756;42.774;23.354;2023-10-08T08:23:27;6.75;;;2.25;;
77597;SDS011;66756;42.774;23.354;2023-10-08T08:25:53;5.18;;;1.83;;
77597;SDS011;66756;42.774;23.354;2023-10-08T08:28:36;5.25;;;2.10;;
77597;SDS011;66756;42.774;23.354;2023-10-08T08:31:05;5.65;;;1.98;;
77597;SDS011;66756;42.774;23.354;2023-10-08T08:33:39;6.70;;;2.47;;
77597;SDS011;66756;42.774;23.354;2023-10-08T08:36:23;5.53;;;1.65;;
77597;SDS011;66756;42.774;23.354;2023-10-08T08:38:50;3.97;;;1.88;;
77597;SDS011;66756;42.774;23.354;2023-10-08T08:41:16;4.22;;;1.55;;
77597;SDS011;66756;42.774;23.354;2023-10-08T08:43:52;6.40;;;1.98;;
77597;SDS011;66756;42.774;23.354;2023-10-08T08:46:44;5.38;;;2.10;;
77597;SDS011;66756;42.774;23.354;2023-10-08T08:49:09;5.47;;;2.80;;
77597;SDS011;66756;42.774;23.354;2023-10-08T08:51:37;4.05;;;1.90;;
77597;SDS011;66756;42.774;23.354;2023-10-08T08:54:06;6.25;;;1.95;;
77597;SDS011;66756;42.774;23.354;2023-10-08T08:56:36;3.60;;;1.67;;
77597;SDS011;66756;42.774;23.354;2023-10-08T08:59:06;5.22;;;2.08;;
77597;SDS011;66756;42.774;23.354;2023-10-08T09:01:39;4.38;;;1.63;;
77597;SDS011;66756;42.774;23.354;2023-10-08T09:04:09;6.15;;;1.73;;
77597;SDS011;66756;42.774;23.354;2023-10-08T09:06:35;5.32;;;2.08;;
77597;SDS011;66756;42.774;23.354;2023-10-08T09:09:05;5.07;;;1.65;;
77597;SDS011;66756;42.774;23.354;2023-10-08T09:11:50;5.25;;;1.77;;
77597;SDS011;66756;42.774;23.354;2023-10-08T09:14:23;7.35;;;2.28;;
77597;SDS011;66756;42.774;23.354;2023-10-08T09:16:52;5.00;;;1.60;;
77597;SDS011;66756;42.774;23.354;2023-10-08T09:19:23;4.95;;;1.92;;
77597;SDS011;66756;42.774;23.354;2023-10-08T09:22:09;5.53;;;1.90;;
77597;SDS011;66756;42.774;23.354;2023-10-08T09:24:37;4.57;;;1.10;;
77597;SDS011;66756;42.774;23.354;2023-10-08T09:27:06;4.03;;;0.85;;
77597;SDS011;66756;42.774;23.354;2023-10-08T09:29:36;4.13;;;0.95;;
77597;SDS011;66756;42.774;23.354;2023-10-08T09:32:08;4.90;;;0.82;;
77597;SDS011;66756;42.774;23.354;2023-10-08T09:34:34;3.40;;;1.05;;
77597;SDS011;66756;42.774;23.354;2023-10-08T09:37:01;5.43;;;1.23;;
77597;SDS011;66756;42.774;23.354;2023-10-08T09:39:32;5.38;;;1.15;;
77597;SDS011;66756;42.774;23.354;2023-10-08T09:42:00;3.65;;;0.82;;
77597;SDS011;66756;42.774;23.354;2023-10-08T09:44:31;4.53;;;2.28;;
77597;SDS011;66756;42.774;23.354;2023-10-08T09:47:05;5.50;;;1.30;;
77597;SDS011;66756;42.774;23.354;2023-10-08T09:49:51;3.13;;;0.73;;
77597;SDS011;66756;42.774;23.354;2023-10-08T09:52:21;4.65;;;1.23;;
77597;SDS011;66756;42.774;23.354;2023-10-08T09:54:53;4.07;;;1.17;;
77597;SDS011;66756;42.774;23.354;2023-10-08T09:57:21;2.88;;;1.83;;
77597;SDS011;66756;42.774;23.354;2023-10-08T09:59:51;5.03;;;1.17;;
77597;SDS011;66756;42.774;23.354;2023-10-08T10:02:18;3.28;;;1.02;;
77597;SDS011;66756;42.774;23.354;2023-10-08T10:04:48;3.67;;;1.65;;
77597;SDS011;66756;42.774;23.354;2023-10-08T10:07:17;3.88;;;0.82;;
77597;SDS011;66756;42.774;23.354;2023-10-08T10:09:43;4.63;;;1.27;;
77597;SDS011;66756;42.774;23.354;2023-10-08T10:12:15;3.35;;;1.20;;
77597;SDS011;66756;42.774;23.354;2023-10-08T10:14:47;4.45;;;2.08;;
77597;SDS011;66756;42.774;23.354;2023-10-08T10:17:22;4.15;;;0.93;;
77597;SDS011;66756;42.774;23.354;2023-10-08T10:19:53;4.25;;;1.13;;
77597;SDS011;66756;42.774;23.354;2023-10-08T10:22:33;3.85;;;1.02;;
77597;SDS011;66756;42.774;23.354;2023-10-08T10:25:02;2.95;;;0.70;;
77597;SDS011;66756;42.774;23.354;2023-10-08T10:30:17;3.22;;;1.00;;
77597;SDS011;66756;42.774;23.354;2023-10-08T10:32:44;3.47;;;0.85;;
77597;SDS011;66756;42.774;23.354;2023-10-08T10:35:15;4.07;;;0.93;;
77597;SDS011;66756;42.774;23.354;2023-10-08T10:37:44;3.97;;;1.15;;
77597;SDS011;66756;42.774;23.354;2023-10-08T10:40:19;6.65;;;1.25;;
77597;SDS011;66756;42.774;23.354;2023-10-08T10:42:57;4.50;;;0.73;;
77597;SDS011;66756;42.774;23.354;2023-10-08T10:45:28;4.68;;;1.17;;
77597;SDS011;66756;42.774;23.354;2023-10-08T10:48:11;5.07;;;1.30;;
77597;SDS011;66756;42.774;23.354;2023-10-08T10:50:45;3.38;;;1.02;;
77597;SDS011;66756;42.774;23.354;2023-10-08T10:53:31;4.00;;;1.23;;
77597;SDS011;66756;42.774;23.354;2023-10-08T10:55:58;7.00;;;1.17;;
77597;SDS011;66756;42.774;23.354;2023-10-08T10:58:28;3.95;;;0.98;;
77597;SDS011;66756;42.774;23.354;2023-10-08T11:01:03;4.10;;;1.65;;
77597;SDS011;66756;42.774;23.354;2023-10-08T11:03:49;7.38;;;1.38;;
77597;SDS011;66756;42.774;23.354;2023-10-08T11:06:16;3.45;;;1.33;;
77597;SDS011;66756;42.774;23.354;2023-10-08T11:08:47;6.03;;;0.95;;
77597;SDS011;66756;42.774;23.354;2023-10-08T11:11:16;6.07;;;1.67;;
77597;SDS011;66756;42.774;23.354;2023-10-08T11:13:42;5.07;;;1.10;;
77597;SDS011;66756;42.774;23.354;2023-10-08T11:16:15;5.43;;;0.85;;
77597;SDS011;66756;42.774;23.354;2023-10-08T11:18:42;5.00;;;0.90;;
77597;SDS011;66756;42.774;23.354;2023-10-08T11:21:10;6.40;;;1.80;;
77597;SDS011;66756;42.774;23.354;2023-10-08T11:23:44;5.88;;;1.52;;
77597;SDS011;66756;42.774;23.354;2023-10-08T11:26:36;4.70;;;1.52;;
77597;SDS011;66756;42.774;23.354;2023-10-08T11:29:07;5.40;;;1.23;;
77597;SDS011;66756;42.774;23.354;2023-10-08T11:31:40;5.63;;;1.67;;
77597;SDS011;66756;42.774;23.354;2023-10-08T11:34:06;4.13;;;1.33;;
77597;SDS011;66756;42.774;23.354;2023-10-08T11:36:35;4.20;;;1.20;;
77597;SDS011;66756;42.774;23.354;2023-10-08T11:39:13;3.58;;;1.00;;
77597;SDS011;66756;42.774;23.354;2023-10-08T11:42:02;4.18;;;1.00;;
77597;SDS011;66756;42.774;23.354;2023-10-08T11:44:30;6.05;;;1.08;;
77597;SDS011;66756;42.774;23.354;2023-10-08T11:49:34;4.22;;;0.82;;
77597;SDS011;66756;42.774;23.354;2023-10-08T11:52:01;4.78;;;0.77;;
77597;SDS011;66756;42.774;23.354;2023-10-08T11:54:28;5.38;;;1.08;;
77597;SDS011;66756;42.774;23.354;2023-10-08T11:56:58;5.25;;;0.88;;
77597;SDS011;66756;42.774;23.354;2023-10-08T11:59:25;6.97;;;2.03;;
77597;SDS011;66756;42.774;23.354;2023-10-08T12:01:51;4.88;;;1.02;;
77597;SDS011;66756;42.774;23.354;2023-10-08T12:04:17;3.95;;;1.25;;
77597;SDS011;66756;42.774;23.354;2023-10-08T12:06:46;6.40;;;0.88;;
77597;SDS011;66756;42.774;23.354;2023-10-08T12:09:12;4.72;;;1.75;;
77597;SDS011;66756;42.774;23.354;2023-10-08T12:11:39;6.55;;;1.15;;
77597;SDS011;66756;42.774;23.354;2023-10-08T12:14:05;5.93;;;0.88;;
77597;SDS011;66756;42.774;23.354;2023-10-08T12:16:32;4.40;;;0.90;;
77597;SDS011;66756;42.774;23.354;2023-10-08T12:19:01;4.60;;;1.30;;
77597;SDS011;66756;42.774;23.354;2023-10-08T12:21:40;4.63;;;1.10;;
77597;SDS011;66756;42.774;23.354;2023-10-08T12:24:06;7.07;;;0.98;;
77597;SDS011;66756;42.774;23.354;2023-10-08T12:26:35;7.78;;;1.00;;
77597;SDS011;66756;42.774;23.354;2023-10-08T12:29:01;5.30;;;1.17;;
77597;SDS011;66756;42.774;23.354;2023-10-08T12:31:27;7.55;;;1.13;;
77597;SDS011;66756;42.774;23.354;2023-10-08T12:33:54;7.45;;;1.10;;
77597;SDS011;66756;42.774;23.354;2023-10-08T12:36:25;3.30;;;0.70;;
77597;SDS011;66756;42.774;23.354;2023-10-08T12:39:01;6.47;;;1.20;;
77597;SDS011;66756;42.774;23.354;2023-10-08T12:41:43;6.22;;;1.20;;
77597;SDS011;66756;42.774;23.354;2023-10-08T12:44:12;5.47;;;0.70;;
77597;SDS011;66756;42.774;23.354;2023-10-08T12:46:40;6.22;;;1.15;;
77597;SDS011;66756;42.774;23.354;2023-10-08T12:49:09;4.28;;;0.77;;
77597;SDS011;66756;42.774;23.354;2023-10-08T12:51:35;6.28;;;0.90;;
77597;SDS011;66756;42.774;23.354;2023-10-08T12:54:06;4.72;;;1.58;;
77597;SDS011;66756;42.774;23.354;2023-10-08T12:56:33;7.13;;;1.42;;
77597;SDS011;66756;42.774;23.354;2023-10-08T12:59:13;3.55;;;0.50;;
77597;SDS011;66756;42.774;23.354;2023-10-08T13:01:46;4.13;;;1.00;;
77597;SDS011;66756;42.774;23.354;2023-10-08T13:04:16;4.40;;;1.20;;
77597;SDS011;66756;42.774;23.354;2023-10-08T13:06:50;7.10;;;0.95;;
77597;SDS011;66756;42.774;23.354;2023-10-08T13:09:16;7.03;;;1.42;;
77597;SDS011;66756;42.774;23.354;2023-10-08T13:11:42;4.43;;;0.73;;
77597;SDS011;66756;42.774;23.354;2023-10-08T13:14:08;4.47;;;0.73;;
77597;SDS011;66756;42.774;23.354;2023-10-08T13:16:36;5.93;;;1.27;;
77597;SDS011;66756;42.774;23.354;2023-10-08T13:19:02;5.07;;;0.90;;
77597;SDS011;66756;42.774;23.354;2023-10-08T13:21:29;5.65;;;0.65;;
77597;SDS011;66756;42.774;23.354;2023-10-08T13:23:56;3.78;;;1.15;;
77597;SDS011;66756;42.774;23.354;2023-10-08T13:26:25;5.07;;;1.05;;
77597;SDS011;66756;42.774;23.354;2023-10-08T13:28:56;4.43;;;0.88;;
77597;SDS011;66756;42.774;23.354;2023-10-08T13:31:23;4.65;;;0.80;;
77597;SDS011;66756;42.774;23.354;2023-10-08T13:33:50;6.50;;;1.05;;
77597;SDS011;66756;42.774;23.354;2023-10-08T13:36:17;4.28;;;1.50;;
77597;SDS011;66756;42.774;23.354;2023-10-08T13:38:43;8.45;;;1.73;;
77597;SDS011;66756;42.774;23.354;2023-10-08T13:41:11;9.50;;;2.50;;
77597;SDS011;66756;42.774;23.354;2023-10-08T13:46:15;6.20;;;1.88;;
77597;SDS011;66756;42.774;23.354;2023-10-08T13:48:47;8.65;;;2.53;;
77597;SDS011;66756;42.774;23.354;2023-10-08T13:51:13;6.00;;;1.92;;
77597;SDS011;66756;42.774;23.354;2023-10-08T13:53:40;4.53;;;1.55;;
77597;SDS011;66756;42.774;23.354;2023-10-08T13:56:10;4.75;;;0.80;;
77597;SDS011;66756;42.774;23.354;2023-10-08T13:58:36;5.70;;;0.80;;
77597;SDS011;66756;42.774;23.354;2023-10-08T14:01:06;4.78;;;0.82;;
77597;SDS011;66756;42.774;23.354;2023-10-08T14:03:47;7.60;;;1.92;;
77597;SDS011;66756;42.774;23.354;2023-10-08T14:06:14;6.45;;;0.88;;
77597;SDS011;66756;42.774;23.354;2023-10-08T14:08:41;3.72;;;0.77;;
77597;SDS011;66756;42.774;23.354;2023-10-08T14:11:09;5.50;;;0.80;;
77597;SDS011;66756;42.774;23.354;2023-10-08T14:13:38;7.85;;;0.55;;
77597;SDS011;66756;42.774;23.354;2023-10-08T14:16:07;4.70;;;0.50;;
77597;SDS011;66756;42.774;23.354;2023-10-08T14:18:36;4.70;;;1.48;;
77597;SDS011;66756;42.774;23.354;2023-10-08T14:21:06;5.68;;;0.98;;
77597;SDS011;66756;42.774;23.354;2023-10-08T14:23:35;9.35;;;0.85;;
77597;SDS011;66756;42.774;23.354;2023-10-08T14:26:04;6.60;;;0.77;;
77597;SDS011;66756;42.774;23.354;2023-10-08T14:28:32;7.88;;;1.15;;
77597;SDS011;66756;42.774;23.354;2023-10-08T14:31:16;6.82;;;1.17;;
77597;SDS011;66756;42.774;23.354;2023-10-08T14:33:45;4.97;;;0.73;;
77597;SDS011;66756;42.774;23.354;2023-10-08T14:36:30;7.95;;;0.90;;
77597;SDS011;66756;42.774;23.354;2023-10-08T14:39:15;8.93;;;0.82;;
77597;SDS011;66756;42.774;23.354;2023-10-08T14:41:59;6.65;;;0.73;;
77597;SDS011;66756;42.774;23.354;2023-10-08T14:44:44;4.75;;;0.60;;
77597;SDS011;66756;42.774;23.354;2023-10-08T14:47:11;8.55;;;1.10;;
77597;SDS011;66756;42.774;23.354;2023-10-08T14:49:38;6.30;;;1.13;;
77597;SDS011;66756;42.774;23.354;2023-10-08T14:52:04;7.55;;;0.68;;
77597;SDS011;66756;42.774;23.354;2023-10-08T14:54:30;6.40;;;0.85;;
77597;SDS011;66756;42.774;23.354;2023-10-08T14:56:58;3.20;;;0.43;;
77597;SDS011;66756;42.774;23.354;2023-10-08T14:59:24;6.18;;;0.75;;
77597;SDS011;66756;42.774;23.354;2023-10-08T15:01:53;5.82;;;1.27;;
77597;SDS011;66756;42.774;23.354;2023-10-08T15:04:20;5.38;;;0.90;;
77597;SDS011;66756;42.774;23.354;2023-10-08T15:06:47;5.45;;;0.82;;